createdAt,value
2018-08-30T00:00:24.985Z,20.80
2018-08-30T00:02:53.451Z,20.80
2018-08-30T00:05:28.692Z,20.80
2018-08-30T00:07:57.072Z,20.80
2018-08-30T00:10:25.500Z,20.80
2018-08-30T00:12:53.851Z,20.80
2018-08-30T00:15:22.337Z,20.70
2018-08-30T00:17:50.707Z,20.70
2018-08-30T00:20:19.241Z,20.70
2018-08-30T00:22:47.698Z,20.60
2018-08-30T00:25:16.141Z,20.60
2018-08-30T00:27:44.765Z,20.50
2018-08-30T00:30:13.150Z,20.50
2018-08-30T00:32:41.521Z,20.50
2018-08-30T00:35:09.925Z,20.50
2018-08-30T00:37:38.294Z,20.50
2018-08-30T00:40:06.836Z,20.40
2018-08-30T00:42:35.272Z,20.40
2018-08-30T00:45:03.662Z,20.40
2018-08-30T00:47:32.016Z,20.30
2018-08-30T00:50:00.388Z,20.30
2018-08-30T00:52:28.935Z,20.30
2018-08-30T00:54:57.299Z,20.20
2018-08-30T00:57:25.759Z,20.20
2018-08-30T00:59:54.113Z,20.20
2018-08-30T01:02:22.490Z,20.20
2018-08-30T01:04:50.903Z,20.20
2018-08-30T01:07:19.268Z,20.20
2018-08-30T01:09:47.651Z,20.20
2018-08-30T01:12:16.089Z,20.10
2018-08-30T01:14:44.491Z,20.10
2018-08-30T01:17:12.936Z,20.10
2018-08-30T01:19:41.443Z,20.10
2018-08-30T01:22:09.868Z,20.00
2018-08-30T01:24:38.214Z,20.00
2018-08-30T01:27:07.110Z,20.00
2018-08-30T01:29:35.485Z,20.00
2018-08-30T01:32:03.873Z,19.90
2018-08-30T01:34:32.282Z,19.90
2018-08-30T01:37:00.677Z,19.80
2018-08-30T01:39:29.237Z,19.90
2018-08-30T01:41:57.657Z,19.90
2018-08-30T01:44:26.044Z,19.80
2018-08-30T01:46:54.427Z,19.80
2018-08-30T01:49:22.830Z,19.70
2018-08-30T01:51:51.313Z,19.60
2018-08-30T01:54:19.664Z,19.70
2018-08-30T01:56:48.048Z,19.60
2018-08-30T01:59:16.476Z,19.60
2018-08-30T02:01:44.863Z,19.60
2018-08-30T02:04:13.305Z,19.70
2018-08-30T02:06:41.691Z,19.60
2018-08-30T02:09:10.111Z,19.60
2018-08-30T02:11:38.506Z,19.50
2018-08-30T02:14:07.097Z,19.50
2018-08-30T02:16:35.544Z,19.30
2018-08-30T02:19:03.893Z,19.50
2018-08-30T02:21:32.291Z,19.50
2018-08-30T02:24:00.680Z,19.40
2018-08-30T02:26:29.065Z,19.40
2018-08-30T02:28:57.494Z,19.40
2018-08-30T02:31:25.940Z,19.30
2018-08-30T02:33:54.427Z,19.30
2018-08-30T02:36:22.788Z,19.30
2018-08-30T02:38:51.141Z,19.30
2018-08-30T02:41:19.619Z,19.20
2018-08-30T02:43:48.050Z,19.20
2018-08-30T02:46:16.496Z,19.20
2018-08-30T02:48:44.915Z,19.10
2018-08-30T02:51:13.268Z,19.20
2018-08-30T02:53:41.718Z,19.20
2018-08-30T02:56:10.083Z,19.20
2018-08-30T02:58:38.637Z,19.10
2018-08-30T03:01:07.081Z,19.10
2018-08-30T03:03:35.491Z,19.10
2018-08-30T03:06:03.886Z,19.10
2018-08-30T03:08:32.274Z,19.10
2018-08-30T03:11:00.682Z,19.00
2018-08-30T03:13:29.232Z,19.00
2018-08-30T03:15:57.640Z,19.00
2018-08-30T03:18:26.096Z,19.00
2018-08-30T03:20:54.578Z,18.90
2018-08-30T03:23:22.961Z,19.00
2018-08-30T03:25:51.618Z,19.00
2018-08-30T03:28:20.127Z,18.90
2018-08-30T03:30:48.623Z,18.90
2018-08-30T03:33:17.221Z,18.90
2018-08-30T03:35:45.635Z,18.90
2018-08-30T03:38:14.102Z,18.90
2018-08-30T03:40:42.775Z,18.90
2018-08-30T03:43:11.740Z,18.90
2018-08-30T03:45:40.164Z,19.00
2018-08-30T03:48:08.622Z,19.10
2018-08-30T03:50:37.008Z,19.00
2018-08-30T03:53:05.643Z,19.00
2018-08-30T03:55:34.040Z,19.00
2018-08-30T03:58:02.960Z,19.00
2018-08-30T04:00:31.469Z,19.00
2018-08-30T04:02:59.899Z,18.90
2018-08-30T04:05:28.289Z,18.90
2018-08-30T04:07:56.815Z,18.90
2018-08-30T04:10:25.187Z,18.80
2018-08-30T04:12:53.614Z,18.90
2018-08-30T04:15:21.983Z,18.80
2018-08-30T04:17:50.385Z,18.80
2018-08-30T04:20:18.840Z,18.80
2018-08-30T04:22:47.231Z,18.80
2018-08-30T04:25:15.652Z,18.80
2018-08-30T04:27:44.062Z,18.80
2018-08-30T04:30:12.510Z,18.80
2018-08-30T04:32:41.021Z,18.80
2018-08-30T04:35:09.511Z,18.80
2018-08-30T04:37:38.018Z,18.80
2018-08-30T04:40:06.532Z,18.90
2018-08-30T04:42:35.456Z,18.90
2018-08-30T04:45:03.876Z,18.90
2018-08-30T04:47:32.323Z,18.80
2018-08-30T04:50:00.859Z,18.80
2018-08-30T04:52:29.234Z,18.80
2018-08-30T04:54:57.692Z,18.80
2018-08-30T04:57:26.104Z,18.80
2018-08-30T04:59:54.489Z,18.70
2018-08-30T05:02:22.877Z,18.70
2018-08-30T05:04:51.270Z,18.70
2018-08-30T05:07:19.655Z,18.70
2018-08-30T05:09:48.130Z,18.60
2018-08-30T05:12:16.636Z,18.60
2018-08-30T05:14:45.111Z,18.60
2018-08-30T05:17:13.707Z,18.40
2018-08-30T05:19:42.735Z,18.40
2018-08-30T05:22:11.335Z,18.30
2018-08-30T05:24:40.130Z,18.30
2018-08-30T05:27:08.824Z,18.30
2018-08-30T05:29:37.383Z,18.20
2018-08-30T05:32:05.868Z,18.20
2018-08-30T05:34:34.388Z,18.10
2018-08-30T05:37:05.756Z,18.10
2018-08-30T05:39:34.287Z,18.00
2018-08-30T05:42:02.879Z,18.00
2018-08-30T05:44:31.426Z,17.90
2018-08-30T05:46:59.840Z,17.80
2018-08-30T05:49:28.319Z,17.80
2018-08-30T05:51:56.753Z,17.80
2018-08-30T05:54:25.339Z,17.80
2018-08-30T05:56:54.251Z,17.80
2018-08-30T05:59:22.709Z,17.80
2018-08-30T06:01:51.117Z,17.80
2018-08-30T06:04:19.661Z,17.80
2018-08-30T06:06:48.040Z,17.80
2018-08-30T06:09:16.533Z,17.90
2018-08-30T06:11:45.011Z,18.00
2018-08-30T06:14:13.582Z,17.90
2018-08-30T06:16:42.360Z,17.80
2018-08-30T06:19:10.854Z,17.60
2018-08-30T06:21:39.393Z,17.60
2018-08-30T06:24:07.887Z,17.50
2018-08-30T06:26:36.520Z,17.50
2018-08-30T06:29:05.523Z,17.50
2018-08-30T06:31:33.899Z,17.50
2018-08-30T06:34:02.375Z,17.50
2018-08-30T06:36:30.751Z,17.70
2018-08-30T06:38:59.356Z,17.70
2018-08-30T06:41:30.707Z,17.70
2018-08-30T06:43:59.377Z,17.80
2018-08-30T06:46:27.866Z,17.70
2018-08-30T06:48:56.348Z,17.70
2018-08-30T06:51:24.763Z,17.50
2018-08-30T06:53:53.402Z,17.60
2018-08-30T06:56:22.015Z,17.50
2018-08-30T06:58:50.475Z,17.60
2018-08-30T07:01:18.903Z,17.70
2018-08-30T07:03:47.496Z,17.70
2018-08-30T07:06:16.177Z,17.70
2018-08-30T07:08:44.834Z,17.80
2018-08-30T07:11:13.709Z,17.80
2018-08-30T07:13:42.837Z,17.80
2018-08-30T07:16:11.704Z,17.90
2018-08-30T07:18:40.561Z,17.90
2018-08-30T07:21:09.623Z,17.80
2018-08-30T07:23:38.013Z,17.80
2018-08-30T07:26:06.702Z,17.80
2018-08-30T07:28:35.216Z,17.80
2018-08-30T07:31:03.644Z,17.80
2018-08-30T07:33:32.247Z,17.70
2018-08-30T07:36:00.790Z,17.60
2018-08-30T07:38:29.193Z,17.70
2018-08-30T07:40:57.645Z,17.70
2018-08-30T07:43:26.036Z,17.70
2018-08-30T07:45:54.656Z,17.80
2018-08-30T07:48:23.218Z,17.90
2018-08-30T07:50:51.652Z,17.80
2018-08-30T07:53:20.055Z,17.80
2018-08-30T07:55:48.580Z,17.60
2018-08-30T07:58:17.052Z,17.50
2018-08-30T08:00:47.844Z,17.50
2018-08-30T08:03:17.340Z,17.50
2018-08-30T08:05:45.857Z,17.50
2018-08-30T08:08:14.459Z,17.40
2018-08-30T08:10:42.991Z,17.40
2018-08-30T08:13:11.424Z,17.30
2018-08-30T08:15:39.901Z,17.40
2018-08-30T08:18:08.343Z,17.50
2018-08-30T08:20:36.773Z,17.40
2018-08-30T08:23:05.207Z,17.30
2018-08-30T08:25:33.588Z,17.30
2018-08-30T08:28:02.063Z,17.40
2018-08-30T08:30:30.557Z,17.40
2018-08-30T08:32:58.951Z,17.40
2018-08-30T08:35:27.338Z,17.50
2018-08-30T08:37:55.819Z,17.60
2018-08-30T08:40:24.275Z,17.50
2018-08-30T08:42:52.771Z,17.50
2018-08-30T08:45:21.202Z,17.50
2018-08-30T08:47:49.761Z,17.50
2018-08-30T08:50:18.114Z,17.50
2018-08-30T08:52:46.661Z,17.50
2018-08-30T08:55:15.048Z,17.50
2018-08-30T08:57:43.486Z,17.60
2018-08-30T09:00:11.932Z,17.70
2018-08-30T09:02:40.472Z,17.80
2018-08-30T09:05:09.600Z,17.90
2018-08-30T09:07:38.091Z,18.00
2018-08-30T09:10:07.002Z,17.90
2018-08-30T09:12:35.435Z,17.80
2018-08-30T09:15:03.907Z,17.80
2018-08-30T09:17:32.495Z,17.70
2018-08-30T09:20:00.921Z,17.60
2018-08-30T09:22:29.307Z,17.70
2018-08-30T09:24:57.793Z,17.80
2018-08-30T09:27:26.204Z,17.80
2018-08-30T09:29:54.601Z,17.80
2018-08-30T09:32:23.181Z,17.90
2018-08-30T09:34:51.804Z,17.80
2018-08-30T09:37:20.182Z,17.80
2018-08-30T09:39:48.656Z,17.90
2018-08-30T09:42:17.068Z,17.80
2018-08-30T09:44:45.521Z,17.80
2018-08-30T09:47:13.958Z,17.90
2018-08-30T09:49:42.435Z,17.90
2018-08-30T09:52:10.900Z,18.00
2018-08-30T09:54:39.344Z,18.00
2018-08-30T09:57:08.053Z,18.00
2018-08-30T09:59:36.300Z,18.00
2018-08-30T10:02:10.146Z,17.90
2018-08-30T10:04:38.912Z,18.00
2018-08-30T10:07:07.359Z,18.00
2018-08-30T10:09:35.970Z,18.00
2018-08-30T10:12:04.382Z,18.00
2018-08-30T10:14:32.867Z,17.90
2018-08-30T10:17:01.344Z,17.90
2018-08-30T10:19:29.728Z,18.00
2018-08-30T10:21:58.112Z,18.00
2018-08-30T10:24:26.561Z,17.90
2018-08-30T10:26:55.092Z,17.90
2018-08-30T10:29:23.544Z,18.00
2018-08-30T10:31:51.956Z,18.10
2018-08-30T10:34:20.317Z,18.10
2018-08-30T10:36:48.752Z,18.10
2018-08-30T10:39:17.631Z,18.10
2018-08-30T10:41:46.048Z,18.30
2018-08-30T10:44:14.574Z,18.30
2018-08-30T10:46:43.231Z,18.30
2018-08-30T10:49:11.589Z,18.40
2018-08-30T10:51:40.020Z,18.40
2018-08-30T10:54:08.539Z,18.30
2018-08-30T10:56:36.995Z,18.30
2018-08-30T10:59:05.418Z,18.40
2018-08-30T11:01:34.064Z,18.40
2018-08-30T11:04:03.558Z,18.40
2018-08-30T11:06:32.040Z,18.40
2018-08-30T11:09:00.438Z,18.50
2018-08-30T11:11:28.816Z,18.40
2018-08-30T11:13:57.316Z,18.40
2018-08-30T11:16:25.705Z,18.40
2018-08-30T11:18:54.178Z,18.40
2018-08-30T11:21:22.557Z,18.30
2018-08-30T11:23:51.045Z,18.30
2018-08-30T11:26:19.443Z,18.30
2018-08-30T11:28:47.970Z,18.40
2018-08-30T11:31:16.354Z,18.40
2018-08-30T11:33:44.788Z,18.50
2018-08-30T11:36:13.159Z,18.40
2018-08-30T11:38:41.726Z,18.40
2018-08-30T11:41:10.109Z,18.40
2018-08-30T11:43:38.523Z,18.40
2018-08-30T11:46:06.901Z,18.50
2018-08-30T11:48:36.551Z,18.60
2018-08-30T11:51:04.973Z,18.60
2018-08-30T11:53:33.705Z,18.50
2018-08-30T11:56:02.073Z,18.60
2018-08-30T11:58:30.564Z,18.50
2018-08-30T12:01:00.072Z,18.50
2018-08-30T12:03:28.699Z,18.50
2018-08-30T12:05:57.438Z,18.50
2018-08-30T12:08:25.916Z,18.60
2018-08-30T12:10:54.562Z,18.80
2018-08-30T12:13:22.910Z,19.00
2018-08-30T12:15:51.280Z,19.10
2018-08-30T12:18:19.812Z,19.20
2018-08-30T12:20:48.377Z,19.00
2018-08-30T12:23:16.744Z,19.00
2018-08-30T12:25:45.130Z,18.90
2018-08-30T12:28:13.739Z,18.80
2018-08-30T12:30:42.202Z,18.80
2018-08-30T12:33:10.635Z,18.80
2018-08-30T12:35:39.280Z,18.70
2018-08-30T12:38:07.693Z,18.70
2018-08-30T12:40:36.163Z,18.70
2018-08-30T12:43:04.674Z,18.70
2018-08-30T12:45:33.145Z,18.70
2018-08-30T12:48:01.975Z,18.70
2018-08-30T12:50:30.872Z,18.70
2018-08-30T12:52:59.306Z,18.80
2018-08-30T12:55:27.718Z,18.80
2018-08-30T12:57:56.177Z,19.00
2018-08-30T13:00:24.740Z,18.90
2018-08-30T13:02:53.208Z,18.80
2018-08-30T13:05:21.803Z,18.70
2018-08-30T13:07:50.349Z,18.60
2018-08-30T13:10:18.851Z,18.70
2018-08-30T13:12:47.179Z,18.70
2018-08-30T13:15:15.991Z,18.80
2018-08-30T13:17:44.149Z,18.90
2018-08-30T13:20:12.669Z,19.00
2018-08-30T13:22:41.109Z,19.00
2018-08-30T13:25:10.084Z,19.00
2018-08-30T13:27:38.645Z,19.00
2018-08-30T13:30:07.839Z,19.00
2018-08-30T13:32:36.521Z,19.00
2018-08-30T13:35:05.086Z,18.90
2018-08-30T13:37:33.651Z,18.90
2018-08-30T13:40:01.977Z,18.90
2018-08-30T13:42:30.521Z,18.80
2018-08-30T13:44:58.934Z,18.80
2018-08-30T13:47:27.339Z,18.90
2018-08-30T13:49:55.557Z,18.90
2018-08-30T13:52:24.395Z,18.80
2018-08-30T13:54:52.888Z,18.80
2018-08-30T13:57:21.298Z,18.80
2018-08-30T13:59:50.191Z,18.80
2018-08-30T14:02:18.387Z,18.80
2018-08-30T14:04:46.735Z,18.90
2018-08-30T14:07:15.108Z,18.90
2018-08-30T14:09:43.709Z,19.00
2018-08-30T14:12:12.718Z,19.10
2018-08-30T14:14:41.103Z,19.20
2018-08-30T14:17:09.232Z,19.40
2018-08-30T14:19:37.772Z,19.40
2018-08-30T14:22:06.161Z,19.50
2018-08-30T14:24:34.799Z,19.50
2018-08-30T14:27:03.322Z,19.40
2018-08-30T14:29:31.699Z,19.40
2018-08-30T14:32:00.273Z,19.40
2018-08-30T14:34:29.150Z,19.40
2018-08-30T14:36:58.344Z,19.40
2018-08-30T14:39:26.761Z,19.40
2018-08-30T14:41:55.311Z,19.30
2018-08-30T14:44:23.750Z,19.30
2018-08-30T14:46:52.245Z,19.30
2018-08-30T14:49:22.459Z,19.20
2018-08-30T14:51:51.008Z,19.20
2018-08-30T14:54:19.636Z,19.20
2018-08-30T14:56:48.451Z,19.20
2018-08-30T14:59:16.830Z,19.20
2018-08-30T15:01:45.465Z,19.20
2018-08-30T15:04:13.962Z,19.20
2018-08-30T15:06:42.445Z,19.10
2018-08-30T15:09:11.300Z,19.20
2018-08-30T15:11:39.823Z,19.30
2018-08-30T15:14:08.312Z,19.30
2018-08-30T15:16:36.731Z,19.40
2018-08-30T15:19:05.337Z,19.40
2018-08-30T15:21:33.793Z,19.40
2018-08-30T15:24:02.179Z,19.40
2018-08-30T15:26:30.774Z,19.40
2018-08-30T15:28:59.245Z,19.30
2018-08-30T15:31:27.644Z,19.20
2018-08-30T15:33:56.353Z,18.90
2018-08-30T15:36:24.617Z,18.60
2018-08-30T15:38:53.418Z,18.30
2018-08-30T15:41:22.059Z,18.10
2018-08-30T15:43:50.432Z,17.80
2018-08-30T15:46:19.052Z,17.60
2018-08-30T15:48:49.034Z,17.50
2018-08-30T15:51:17.684Z,17.40
2018-08-30T15:53:46.556Z,17.30
2018-08-30T15:56:15.153Z,17.30
2018-08-30T15:58:44.316Z,17.40
2018-08-30T16:01:12.876Z,17.40
2018-08-30T16:03:41.498Z,17.40
2018-08-30T16:06:11.308Z,17.40
2018-08-30T16:08:40.709Z,17.40
2018-08-30T16:11:09.364Z,17.50
2018-08-30T16:13:37.762Z,17.40
2018-08-30T16:16:06.249Z,17.50
2018-08-30T16:18:34.751Z,17.50
2018-08-30T16:21:03.541Z,17.60
2018-08-30T16:23:34.329Z,17.60
2018-08-30T16:26:02.820Z,17.60
2018-08-30T16:28:32.200Z,17.70
2018-08-30T16:31:00.739Z,17.60
2018-08-30T16:33:29.303Z,17.70
2018-08-30T16:35:57.783Z,17.70
2018-08-30T16:38:26.274Z,17.60
2018-08-30T16:40:54.816Z,17.60
2018-08-30T16:43:23.342Z,17.60
2018-08-30T16:45:51.814Z,17.50
2018-08-30T16:48:20.257Z,17.50
2018-08-30T16:50:48.769Z,17.50
2018-08-30T16:53:17.361Z,17.30
2018-08-30T16:55:45.726Z,17.30
2018-08-30T16:58:14.194Z,17.20
2018-08-30T17:00:42.717Z,17.10
2018-08-30T17:03:11.207Z,17.00
2018-08-30T17:05:39.771Z,17.00
2018-08-30T17:08:08.218Z,17.00
2018-08-30T17:10:36.616Z,16.90
2018-08-30T17:13:05.092Z,16.90
2018-08-30T17:15:33.563Z,16.80
2018-08-30T17:18:02.145Z,16.80
2018-08-30T17:20:37.742Z,16.80
2018-08-30T17:23:06.123Z,16.90
2018-08-30T17:25:34.600Z,16.80
2018-08-30T17:28:03.035Z,16.80
2018-08-30T17:30:31.421Z,16.90
2018-08-30T17:32:59.940Z,16.90
2018-08-30T17:35:28.611Z,16.90
2018-08-30T17:37:57.246Z,16.90
2018-08-30T17:40:25.872Z,16.90
2018-08-30T17:42:54.461Z,16.80
2018-08-30T17:45:23.294Z,16.80
2018-08-30T17:47:51.848Z,16.70
2018-08-30T17:50:20.525Z,16.70
2018-08-30T17:52:49.046Z,17.20
2018-08-30T17:55:17.773Z,16.70
2018-08-30T17:57:46.437Z,16.70
2018-08-30T18:00:15.303Z,16.70
2018-08-30T18:02:45.050Z,16.70
2018-08-30T18:05:14.479Z,16.70
2018-08-30T18:07:43.252Z,16.70
2018-08-30T18:10:11.775Z,16.70
2018-08-30T18:12:41.094Z,16.70
2018-08-30T18:15:13.389Z,16.60
2018-08-30T18:17:42.056Z,16.60
2018-08-30T18:20:10.849Z,16.60
2018-08-30T18:22:39.616Z,16.60
2018-08-30T18:25:09.597Z,16.60
2018-08-30T18:27:38.516Z,16.60
2018-08-30T18:30:09.586Z,16.60
2018-08-30T18:32:38.398Z,16.60
2018-08-30T18:35:08.553Z,16.70
2018-08-30T18:37:37.363Z,16.60
2018-08-30T18:40:07.709Z,16.60
2018-08-30T18:42:36.353Z,16.50
2018-08-30T18:45:05.366Z,16.50
2018-08-30T18:47:33.994Z,16.50
2018-08-30T18:50:17.791Z,16.50
2018-08-30T18:52:46.474Z,16.50
2018-08-30T18:58:28.812Z,16.50
2018-08-30T19:00:57.212Z,16.60
2018-08-30T19:03:25.759Z,16.60
2018-08-30T19:05:54.204Z,16.60
2018-08-30T19:08:22.610Z,16.60
2018-08-30T19:10:51.260Z,16.60
2018-08-30T19:13:19.777Z,16.50
2018-08-30T19:15:53.462Z,16.50
2018-08-30T19:18:27.292Z,16.60
2018-08-30T19:20:55.785Z,16.60
2018-08-30T19:23:24.247Z,16.60
2018-08-30T19:25:52.709Z,16.60
2018-08-30T19:28:21.340Z,16.60
2018-08-30T19:30:49.708Z,16.60
2018-08-30T19:33:18.097Z,16.50
2018-08-30T19:35:51.957Z,16.50
2018-08-30T19:38:20.308Z,16.50
2018-08-30T19:40:53.951Z,16.50
2018-08-30T19:43:22.296Z,16.50
2018-08-30T19:45:50.694Z,16.40
2018-08-30T19:48:19.076Z,16.50
2018-08-30T19:50:47.427Z,16.50
2018-08-30T19:53:15.818Z,16.40
2018-08-30T19:55:44.180Z,16.50
2018-08-30T19:58:12.591Z,16.50
2018-08-30T20:00:41.083Z,16.50
2018-08-30T20:03:09.474Z,16.50
2018-08-30T20:05:37.825Z,16.40
2018-08-30T20:08:06.212Z,16.40
2018-08-30T20:10:34.732Z,16.40
2018-08-30T20:13:03.163Z,16.40
2018-08-30T20:15:31.487Z,16.40
2018-08-30T20:17:59.866Z,16.40
2018-08-30T20:20:28.233Z,16.40
2018-08-30T20:22:56.646Z,16.40
2018-08-30T20:25:25.010Z,16.40
2018-08-30T20:27:53.455Z,16.40
2018-08-30T20:30:21.848Z,16.10
2018-08-30T20:32:50.290Z,16.30
2018-08-30T20:35:18.627Z,16.30
2018-08-30T20:37:47.093Z,16.30
2018-08-30T20:40:15.415Z,16.30
2018-08-30T20:42:43.769Z,16.30
2018-08-30T20:45:24.489Z,16.30
2018-08-30T20:47:52.829Z,16.30
2018-08-30T20:50:21.206Z,16.30
2018-08-30T20:52:49.705Z,16.30
2018-08-30T20:55:18.062Z,16.30
2018-08-30T20:57:46.467Z,16.30
2018-08-30T21:00:14.925Z,16.30
2018-08-30T21:02:43.283Z,16.30
2018-08-30T21:05:11.664Z,16.30
2018-08-30T21:07:40.012Z,16.30
2018-08-30T21:10:08.391Z,16.30
2018-08-30T21:12:36.739Z,16.30
2018-08-30T21:15:05.089Z,16.30
2018-08-30T21:17:33.415Z,16.20
2018-08-30T21:20:01.792Z,16.20
2018-08-30T21:22:30.296Z,16.20
2018-08-30T21:24:58.639Z,16.10
2018-08-30T21:27:27.152Z,16.10
2018-08-30T21:29:55.737Z,16.10
2018-08-30T21:32:24.066Z,16.10
2018-08-30T21:34:52.510Z,16.10
2018-08-30T21:37:20.797Z,16.20
2018-08-30T21:39:49.241Z,16.10
2018-08-30T21:42:17.567Z,16.10
2018-08-30T21:44:45.886Z,16.10
2018-08-30T21:47:14.228Z,16.10
2018-08-30T21:49:42.678Z,16.10
2018-08-30T21:52:10.969Z,16.10
2018-08-30T21:54:39.292Z,16.10
2018-08-30T21:57:07.598Z,16.00
2018-08-30T21:59:35.929Z,16.00
2018-08-30T22:02:04.259Z,16.00
2018-08-30T22:04:32.677Z,15.90
2018-08-30T22:07:00.981Z,16.00
2018-08-30T22:09:29.376Z,15.90
2018-08-30T22:11:57.654Z,15.90
2018-08-30T22:14:25.950Z,15.90
2018-08-30T22:16:54.309Z,15.90
2018-08-30T22:19:23.376Z,15.90
2018-08-30T22:21:51.722Z,15.80
2018-08-30T22:24:20.103Z,15.80
2018-08-30T22:26:48.434Z,15.80
2018-08-30T22:29:16.775Z,15.80
2018-08-30T22:31:45.053Z,15.70
2018-08-30T22:34:13.421Z,15.70
2018-08-30T22:36:41.799Z,15.70
2018-08-30T22:39:10.111Z,15.60
2018-08-30T22:41:38.408Z,15.70
2018-08-30T22:44:06.792Z,15.60
2018-08-30T22:46:35.105Z,15.60
2018-08-30T22:49:03.398Z,15.60
2018-08-30T22:51:31.730Z,15.50
2018-08-30T22:54:00.171Z,15.60
2018-08-30T22:56:28.542Z,15.50
2018-08-30T22:58:56.870Z,15.50
2018-08-30T23:01:25.182Z,15.50
2018-08-30T23:03:53.499Z,15.40
2018-08-30T23:06:21.825Z,15.40
2018-08-30T23:08:50.137Z,15.40
2018-08-30T23:11:18.996Z,15.40
2018-08-30T23:13:47.334Z,15.40
2018-08-30T23:16:15.676Z,15.40
2018-08-30T23:18:43.993Z,15.40
2018-08-30T23:21:12.352Z,15.30
2018-08-30T23:23:40.630Z,15.40
2018-08-30T23:26:08.935Z,15.40
2018-08-30T23:28:37.219Z,15.30
2018-08-30T23:31:05.626Z,15.30
2018-08-30T23:33:33.927Z,15.20
2018-08-30T23:36:02.236Z,15.20
2018-08-30T23:38:30.593Z,15.10
2018-08-30T23:40:58.917Z,15.10
2018-08-30T23:43:27.266Z,15.10
2018-08-30T23:45:55.570Z,15.10
2018-08-30T23:48:23.898Z,15.10
2018-08-30T23:50:52.243Z,15.00
2018-08-30T23:53:20.554Z,15.00
2018-08-30T23:55:48.970Z,15.00
2018-08-30T23:58:28.784Z,15.00
